createdAt,value
2019-01-23T00:01:50.445Z,59.59
2019-01-23T00:04:19.044Z,62.13
2019-01-23T00:06:47.631Z,63.52
2019-01-23T00:09:16.347Z,62.74
2019-01-23T00:11:44.916Z,61.93
2019-01-23T00:14:13.497Z,64.34
2019-01-23T00:16:42.325Z,63.19
2019-01-23T00:19:10.943Z,64.99
2019-01-23T00:21:39.511Z,63.11
2019-01-23T00:24:08.395Z,63.52
2019-01-23T00:26:36.964Z,63.64
2019-01-23T00:29:05.533Z,60.78
2019-01-23T00:31:34.156Z,62.81
2019-01-23T00:34:02.806Z,62.95
2019-01-23T00:39:08.288Z,62.86
2019-01-23T00:41:36.970Z,62.00
2019-01-23T00:44:05.934Z,61.10
2019-01-23T00:49:08.654Z,62.77
2019-01-23T00:51:37.467Z,63.49
2019-01-23T00:54:27.048Z,64.27
2019-01-23T00:57:02.565Z,62.00
2019-01-23T00:59:31.142Z,62.98
2019-01-23T01:01:59.774Z,61.86
2019-01-23T01:04:28.423Z,60.66
2019-01-23T01:06:57.021Z,63.27
2019-01-23T01:09:25.605Z,61.56
2019-01-23T01:11:54.273Z,64.23
2019-01-23T01:14:23.105Z,63.38
2019-01-23T01:16:52.007Z,60.80
2019-01-23T01:19:20.688Z,64.21
2019-01-23T01:22:08.508Z,61.72
2019-01-23T01:24:56.378Z,62.59
2019-01-23T01:27:25.342Z,63.42
2019-01-23T01:29:54.150Z,62.36
2019-01-23T01:32:22.726Z,62.28
2019-01-23T01:34:51.400Z,59.58
2019-01-23T01:37:19.981Z,60.69
2019-01-23T01:39:48.571Z,60.67
2019-01-23T01:42:17.370Z,60.71
2019-01-23T01:44:45.933Z,59.23
2019-01-23T01:47:14.535Z,64.30
2019-01-23T01:49:43.105Z,62.33
2019-01-23T01:52:11.917Z,60.39
2019-01-23T01:54:59.793Z,59.93
2019-01-23T01:57:28.657Z,59.26
2019-01-23T02:00:17.604Z,61.36
2019-01-23T02:02:46.186Z,59.10
2019-01-23T02:05:15.364Z,58.69
2019-01-23T02:07:44.089Z,59.30
2019-01-23T02:10:14.706Z,61.40
2019-01-23T02:15:57.152Z,58.16
2019-01-23T02:18:25.715Z,59.15
2019-01-23T02:20:54.366Z,58.56
2019-01-23T02:23:23.243Z,58.02
2019-01-23T02:25:52.077Z,57.74
2019-01-23T02:28:20.974Z,59.05
2019-01-23T02:30:49.565Z,58.85
2019-01-23T02:33:18.150Z,60.41
2019-01-23T02:35:46.708Z,61.19
2019-01-23T02:38:15.303Z,61.94
2019-01-23T02:43:31.794Z,62.88
2019-01-23T02:48:48.053Z,59.67
2019-01-23T02:51:16.649Z,58.67
2019-01-23T02:53:45.245Z,59.22
2019-01-23T02:56:13.864Z,59.05
2019-01-23T02:58:42.515Z,58.57
2019-01-23T03:01:11.087Z,59.33
2019-01-23T03:03:39.658Z,59.85
2019-01-23T03:06:08.336Z,58.43
2019-01-23T03:08:37.190Z,58.14
2019-01-23T03:11:05.873Z,58.91
2019-01-23T03:13:34.463Z,58.35
2019-01-23T03:16:22.306Z,59.17
2019-01-23T03:18:50.875Z,59.92
2019-01-23T03:21:19.481Z,57.27
2019-01-23T03:23:48.057Z,58.17
2019-01-23T03:26:16.627Z,56.78
2019-01-23T03:31:32.846Z,60.24
2019-01-23T03:39:23.186Z,61.22
2019-01-23T03:44:26.265Z,59.84
2019-01-23T03:46:54.839Z,59.24
2019-01-23T03:49:23.422Z,57.82
2019-01-23T03:51:52.046Z,57.88
2019-01-23T03:54:20.903Z,60.65
2019-01-23T03:59:37.116Z,56.95
2019-01-23T04:02:05.966Z,55.76
2019-01-23T04:04:34.566Z,55.97
2019-01-23T04:07:03.136Z,57.46
2019-01-23T04:09:31.958Z,58.75
2019-01-23T04:12:00.530Z,58.12
2019-01-23T04:14:29.145Z,57.70
2019-01-23T04:17:17.014Z,56.69
2019-01-23T04:19:45.602Z,57.60
2019-01-23T04:22:14.165Z,58.03
2019-01-23T04:24:42.782Z,57.85
2019-01-23T04:27:11.656Z,58.99
2019-01-23T04:29:40.250Z,57.66
2019-01-23T04:32:08.901Z,58.73
2019-01-23T04:34:37.722Z,58.95
2019-01-23T04:37:06.387Z,62.06
2019-01-23T04:42:22.598Z,61.16
2019-01-23T04:44:51.173Z,59.79
2019-01-23T04:47:19.845Z,58.01
2019-01-23T04:49:48.342Z,58.60
2019-01-23T04:52:37.112Z,56.13
2019-01-23T04:55:06.118Z,58.49
2019-01-23T05:00:10.367Z,58.36
2019-01-23T05:02:38.966Z,60.44
2019-01-23T05:05:07.964Z,56.59
2019-01-23T05:07:36.555Z,55.78
2019-01-23T05:10:05.432Z,55.72
2019-01-23T05:12:34.341Z,56.75
2019-01-23T05:15:02.997Z,57.12
2019-01-23T05:17:31.915Z,56.49
2019-01-23T05:20:00.507Z,56.66
2019-01-23T05:22:29.094Z,55.65
2019-01-23T05:24:57.667Z,55.56
2019-01-23T05:27:26.268Z,55.22
2019-01-23T05:29:55.257Z,56.76
2019-01-23T05:34:59.540Z,55.87
2019-01-23T05:37:28.168Z,55.07
2019-01-23T05:39:56.996Z,56.88
2019-01-23T05:42:25.625Z,56.03
2019-01-23T05:44:54.229Z,57.06
2019-01-23T05:47:23.146Z,56.20
2019-01-23T05:49:51.834Z,54.94
2019-01-23T05:52:20.736Z,54.78
2019-01-23T05:54:49.337Z,54.42
2019-01-23T05:57:18.102Z,54.34
2019-01-23T05:59:46.687Z,54.10
2019-01-23T06:02:15.341Z,53.47
2019-01-23T06:04:43.961Z,53.48
2019-01-23T06:07:12.559Z,54.44
2019-01-23T06:09:41.428Z,54.42
2019-01-23T06:12:10.097Z,53.83
2019-01-23T06:14:58.054Z,54.85
2019-01-23T06:17:26.638Z,54.82
2019-01-23T06:19:55.248Z,54.56
2019-01-23T06:22:23.834Z,54.26
2019-01-23T06:24:53.495Z,54.75
2019-01-23T06:27:22.068Z,54.43
2019-01-23T06:29:50.731Z,54.13
2019-01-23T06:32:19.294Z,54.27
2019-01-23T06:34:48.354Z,54.68
2019-01-23T06:37:16.930Z,55.48
2019-01-23T06:39:45.521Z,55.67
2019-01-23T06:42:14.115Z,55.24
2019-01-23T06:44:42.694Z,55.31
2019-01-23T06:47:11.263Z,55.08
2019-01-23T06:49:39.933Z,56.38
2019-01-23T06:52:08.612Z,57.16
2019-01-23T06:54:38.181Z,57.45
2019-01-23T07:00:01.366Z,56.22
2019-01-23T07:02:30.038Z,55.88
2019-01-23T07:05:17.948Z,57.81
2019-01-23T07:07:46.737Z,57.80
2019-01-23T07:10:20.878Z,57.80
2019-01-23T07:12:49.784Z,56.76
2019-01-23T07:15:18.711Z,57.98
2019-01-23T07:17:47.389Z,56.03
2019-01-23T07:20:18.657Z,55.64
2019-01-23T07:22:47.622Z,56.47
2019-01-23T07:25:16.283Z,56.47
2019-01-23T07:27:45.196Z,55.52
2019-01-23T07:30:23.970Z,55.10
2019-01-23T07:32:48.318Z,55.56
2019-01-23T07:35:17.073Z,55.31
2019-01-23T07:37:45.665Z,55.66
2019-01-23T07:40:54.161Z,54.79
2019-01-23T07:43:22.749Z,56.33
2019-01-23T07:45:51.363Z,56.05
2019-01-23T07:48:20.015Z,56.12
2019-01-23T07:50:48.713Z,56.12
2019-01-23T07:53:17.300Z,55.26
2019-01-23T07:55:45.900Z,55.54
2019-01-23T07:58:34.501Z,57.23
2019-01-23T08:01:03.377Z,60.36
2019-01-23T08:03:31.971Z,62.45
2019-01-23T08:06:00.632Z,61.48
2019-01-23T08:08:29.213Z,59.43
2019-01-23T08:10:57.859Z,60.21
2019-01-23T08:13:45.831Z,60.52
2019-01-23T08:16:14.504Z,59.62
2019-01-23T08:18:43.093Z,57.91
2019-01-23T08:21:11.979Z,58.75
2019-01-23T08:23:40.804Z,59.56
2019-01-23T08:26:09.398Z,59.93
2019-01-23T08:28:37.967Z,59.12
2019-01-23T08:31:06.549Z,59.77
2019-01-23T08:33:35.225Z,61.75
2019-01-23T08:36:04.131Z,59.61
2019-01-23T08:38:32.722Z,59.32
2019-01-23T08:41:01.309Z,61.00
2019-01-23T08:43:30.154Z,58.39
2019-01-23T08:45:58.733Z,59.75
2019-01-23T08:48:27.333Z,59.34
2019-01-23T08:50:56.122Z,58.01
2019-01-23T08:53:24.972Z,57.78
2019-01-23T08:55:53.999Z,56.70
2019-01-23T08:58:22.971Z,57.02
2019-01-23T09:00:52.019Z,57.22
2019-01-23T09:03:20.624Z,57.50
2019-01-23T09:05:49.289Z,57.54
2019-01-23T09:08:18.125Z,56.58
2019-01-23T09:10:46.938Z,58.04
2019-01-23T09:13:15.527Z,57.04
2019-01-23T09:15:44.097Z,57.58
2019-01-23T09:21:01.962Z,57.97
2019-01-23T09:23:30.660Z,57.96
2019-01-23T09:25:59.293Z,59.05
2019-01-23T09:28:27.875Z,58.11
2019-01-23T09:31:06.923Z,57.13
2019-01-23T09:34:16.792Z,56.48
2019-01-23T09:37:01.773Z,56.56
2019-01-23T09:39:41.942Z,56.51
2019-01-23T09:42:49.038Z,56.27
2019-01-23T09:45:56.185Z,55.27
2019-01-23T09:48:57.596Z,56.01
2019-01-23T09:52:04.959Z,56.48
2019-01-23T09:54:33.590Z,58.51
2019-01-23T09:57:02.169Z,57.76
2019-01-23T09:59:30.793Z,55.09
2019-01-23T10:01:59.545Z,56.07
2019-01-23T10:04:29.415Z,55.83
2019-01-23T10:06:58.508Z,53.97
2019-01-23T10:09:27.185Z,55.67
2019-01-23T10:11:56.049Z,55.21
2019-01-23T10:14:24.687Z,55.60
2019-01-23T10:16:53.615Z,55.93
2019-01-23T10:19:22.428Z,55.60
2019-01-23T10:21:51.022Z,55.93
2019-01-23T10:24:19.599Z,55.70
2019-01-23T10:26:48.287Z,55.97
2019-01-23T10:29:16.897Z,55.20
2019-01-23T10:31:45.582Z,55.94
2019-01-23T10:34:14.194Z,56.31
2019-01-23T10:36:42.967Z,54.23
2019-01-23T10:39:12.434Z,54.29
2019-01-23T10:41:41.215Z,54.39
2019-01-23T10:44:10.031Z,54.39
2019-01-23T10:46:38.643Z,55.75
2019-01-23T10:51:41.951Z,55.40
2019-01-23T10:54:10.724Z,55.01
2019-01-23T10:56:39.803Z,55.58
2019-01-23T10:59:08.549Z,57.99
2019-01-23T11:01:37.560Z,57.62
2019-01-23T11:04:06.513Z,54.90
2019-01-23T11:06:35.488Z,54.98
2019-01-23T11:09:25.012Z,53.54
2019-01-23T11:11:55.328Z,53.44
2019-01-23T11:17:12.021Z,53.71
2019-01-23T11:19:59.738Z,55.11
2019-01-23T11:22:28.396Z,56.27
2019-01-23T11:24:57.110Z,55.70
2019-01-23T11:27:25.894Z,55.35
2019-01-23T11:29:54.759Z,57.13
2019-01-23T11:32:23.849Z,56.56
2019-01-23T11:34:52.848Z,55.49
2019-01-23T11:37:21.521Z,56.41
2019-01-23T11:39:50.256Z,56.56
2019-01-23T11:42:19.069Z,55.70
2019-01-23T11:44:47.771Z,55.38
2019-01-23T11:47:16.567Z,56.65
2019-01-23T11:49:45.303Z,56.41
2019-01-23T11:52:14.075Z,56.68
2019-01-23T11:54:42.668Z,56.70
2019-01-23T11:57:11.838Z,57.24
2019-01-23T11:59:40.787Z,56.66
2019-01-23T12:02:09.506Z,56.83
2019-01-23T12:04:38.150Z,57.10
2019-01-23T12:07:06.920Z,55.50
2019-01-23T12:09:35.652Z,55.53
2019-01-23T12:12:04.686Z,54.87
2019-01-23T12:14:33.615Z,55.46
2019-01-23T12:17:02.382Z,53.74
2019-01-23T12:19:30.984Z,55.59
2019-01-23T12:21:59.863Z,54.72
2019-01-23T12:24:28.826Z,54.77
2019-01-23T12:26:57.771Z,55.74
2019-01-23T12:29:26.340Z,56.49
2019-01-23T12:31:55.285Z,55.20
2019-01-23T12:34:24.152Z,54.07
2019-01-23T12:36:53.139Z,54.11
2019-01-23T12:39:21.755Z,53.74
2019-01-23T12:41:51.448Z,53.13
2019-01-23T12:44:20.254Z,55.02
2019-01-23T12:46:49.352Z,55.20
2019-01-23T12:49:18.390Z,55.26
2019-01-23T12:51:47.151Z,55.01
2019-01-23T12:54:15.969Z,55.94
2019-01-23T12:56:45.132Z,54.84
2019-01-23T12:59:13.906Z,55.23
2019-01-23T13:01:42.491Z,54.00
2019-01-23T13:04:11.176Z,54.28
2019-01-23T13:06:39.767Z,54.45
2019-01-23T13:09:09.311Z,56.34
2019-01-23T13:11:37.902Z,57.05
2019-01-23T13:14:06.481Z,55.46
2019-01-23T13:16:35.309Z,55.81
2019-01-23T13:19:03.883Z,56.57
2019-01-23T13:21:32.459Z,56.83
2019-01-23T13:24:01.107Z,56.03
2019-01-23T13:26:29.673Z,56.15
2019-01-23T13:28:58.556Z,56.75
2019-01-23T13:31:27.599Z,56.56
2019-01-23T13:33:56.381Z,57.11
2019-01-23T13:36:24.951Z,55.23
2019-01-23T13:38:53.775Z,57.02
2019-01-23T13:44:29.646Z,57.03
2019-01-23T13:46:58.315Z,56.05
2019-01-23T13:49:26.984Z,56.87
2019-01-23T13:51:56.045Z,55.68
2019-01-23T13:54:24.922Z,54.68
2019-01-23T13:56:54.059Z,55.21
2019-01-23T13:59:22.819Z,53.91
2019-01-23T14:01:56.139Z,54.43
2019-01-23T14:04:21.765Z,56.37
2019-01-23T14:06:50.377Z,56.44
2019-01-23T14:09:19.224Z,55.11
2019-01-23T14:11:47.886Z,54.46
2019-01-23T14:14:16.543Z,55.34
2019-01-23T14:16:45.438Z,54.99
2019-01-23T14:19:14.098Z,54.67
2019-01-23T14:21:42.927Z,55.22
2019-01-23T14:24:11.677Z,55.79
2019-01-23T14:26:40.397Z,56.21
2019-01-23T14:29:09.079Z,56.77
2019-01-23T14:34:12.320Z,56.06
2019-01-23T14:36:41.219Z,55.83
2019-01-23T14:39:10.094Z,56.19
2019-01-23T14:41:39.457Z,57.24
2019-01-23T14:44:08.060Z,56.44
2019-01-23T14:46:36.956Z,56.02
2019-01-23T14:49:05.706Z,57.46
2019-01-23T14:51:34.618Z,56.65
2019-01-23T14:54:03.331Z,56.94
2019-01-23T14:56:31.997Z,56.47
2019-01-23T14:59:00.618Z,58.36
2019-01-23T15:01:29.389Z,57.64
2019-01-23T15:03:58.259Z,57.18
2019-01-23T15:06:27.111Z,56.02
2019-01-23T15:08:56.059Z,56.55
2019-01-23T15:11:24.789Z,56.81
2019-01-23T15:13:54.069Z,55.78
2019-01-23T15:16:22.874Z,55.97
2019-01-23T15:18:51.564Z,56.39
2019-01-23T15:21:22.502Z,56.26
2019-01-23T15:23:51.007Z,55.97
2019-01-23T15:26:19.876Z,57.19
2019-01-23T15:28:48.661Z,56.84
2019-01-23T15:31:17.387Z,57.27
2019-01-23T15:33:45.976Z,57.59
2019-01-23T15:36:14.696Z,57.45
2019-01-23T15:38:43.300Z,57.06
2019-01-23T15:41:12.350Z,57.16
2019-01-23T15:43:40.954Z,58.55
2019-01-23T15:46:09.696Z,59.01
2019-01-23T15:48:39.322Z,59.17
2019-01-23T15:51:08.029Z,60.09
2019-01-23T15:53:36.874Z,58.81
2019-01-23T15:56:05.551Z,60.26
2019-01-23T15:58:34.503Z,59.94
2019-01-23T16:01:03.397Z,59.01
2019-01-23T16:03:32.339Z,58.89
2019-01-23T16:06:01.032Z,59.40
2019-01-23T16:08:30.399Z,61.78
2019-01-23T16:10:58.984Z,60.42
2019-01-23T16:13:28.221Z,59.22
2019-01-23T16:15:56.759Z,60.37
2019-01-23T16:18:25.472Z,58.55
2019-01-23T16:20:54.426Z,60.71
2019-01-23T16:23:23.326Z,57.22
2019-01-23T16:25:52.104Z,57.22
2019-01-23T16:28:20.918Z,56.93
2019-01-23T16:30:49.710Z,57.19
2019-01-23T16:33:18.478Z,58.41
2019-01-23T16:35:47.723Z,59.27
2019-01-23T16:38:16.508Z,59.31
2019-01-23T16:40:45.470Z,59.27
2019-01-23T16:43:14.316Z,58.22
2019-01-23T16:45:42.897Z,59.09
2019-01-23T16:48:11.607Z,57.80
2019-01-23T16:50:40.184Z,57.82
2019-01-23T16:53:08.848Z,57.96
2019-01-23T16:55:37.977Z,57.56
2019-01-23T16:58:07.488Z,57.95
2019-01-23T17:00:36.228Z,59.17
2019-01-23T17:03:05.349Z,57.49
2019-01-23T17:05:34.131Z,60.22
2019-01-23T17:08:04.858Z,59.97
2019-01-23T17:10:33.569Z,58.70
2019-01-23T17:13:02.184Z,60.31
2019-01-23T17:15:31.043Z,57.88
2019-01-23T17:17:59.813Z,58.92
2019-01-23T17:20:32.127Z,58.92
2019-01-23T17:23:00.967Z,60.20
2019-01-23T17:25:29.718Z,59.51
2019-01-23T17:27:58.439Z,59.46
2019-01-23T17:30:27.568Z,60.37
2019-01-23T17:32:56.164Z,59.66
2019-01-23T17:35:24.824Z,58.99
2019-01-23T17:37:53.555Z,60.49
2019-01-23T17:40:22.522Z,59.40
2019-01-23T17:42:51.188Z,58.40
2019-01-23T17:45:22.738Z,59.07
2019-01-23T17:47:51.729Z,58.75
2019-01-23T17:50:21.057Z,61.42
2019-01-23T17:52:49.679Z,59.72
2019-01-23T17:55:23.805Z,58.38
2019-01-23T17:57:52.784Z,59.27
2019-01-23T18:00:27.717Z,58.24
2019-01-23T18:02:57.275Z,57.85
2019-01-23T18:05:26.450Z,59.17
2019-01-23T18:07:55.919Z,60.68
2019-01-23T18:10:24.677Z,60.05
2019-01-23T18:12:53.400Z,58.46
2019-01-23T18:15:23.560Z,58.48
2019-01-23T18:17:52.456Z,60.37
2019-01-23T18:20:25.905Z,60.99
2019-01-23T18:22:54.687Z,60.08
2019-01-23T18:25:23.474Z,59.81
2019-01-23T18:27:52.397Z,58.68
2019-01-23T18:30:30.437Z,58.67
2019-01-23T18:33:00.196Z,60.04
2019-01-23T18:35:58.055Z,59.23
2019-01-23T18:38:57.015Z,59.07
2019-01-23T18:42:05.092Z,57.84
2019-01-23T18:45:01.740Z,58.52
2019-01-23T18:48:07.197Z,59.04
2019-01-23T18:51:07.195Z,58.97
2019-01-23T18:53:35.803Z,56.93
2019-01-23T18:56:04.715Z,59.04
2019-01-23T18:58:33.791Z,58.14
2019-01-23T19:01:02.381Z,60.74
2019-01-23T19:03:31.078Z,59.88
2019-01-23T19:05:59.892Z,59.69
2019-01-23T19:08:28.568Z,59.47
2019-01-23T19:10:57.716Z,59.25
2019-01-23T19:13:26.362Z,60.04
2019-01-23T19:15:55.281Z,60.16
2019-01-23T19:18:23.879Z,63.24
2019-01-23T19:20:52.584Z,60.33
2019-01-23T19:23:21.202Z,58.69
2019-01-23T19:25:51.192Z,58.95
2019-01-23T19:28:19.938Z,59.73
2019-01-23T19:30:48.861Z,60.28
2019-01-23T19:33:17.596Z,59.06
2019-01-23T19:35:46.270Z,59.98
2019-01-23T19:38:14.939Z,60.95
2019-01-23T19:40:43.681Z,60.92
2019-01-23T19:43:12.257Z,61.44
2019-01-23T19:45:41.139Z,60.82
2019-01-23T19:48:09.770Z,60.42
2019-01-23T19:50:38.443Z,59.30
2019-01-23T19:53:07.094Z,59.24
2019-01-23T19:55:35.939Z,59.26
2019-01-23T19:58:04.708Z,60.34
2019-01-23T20:00:33.494Z,60.06
2019-01-23T20:03:02.136Z,58.92
2019-01-23T20:05:31.721Z,57.67
2019-01-23T20:08:00.429Z,61.42
2019-01-23T20:10:29.575Z,62.69
2019-01-23T20:12:58.126Z,61.49
2019-01-23T20:15:27.035Z,60.18
2019-01-23T20:17:58.656Z,60.72
2019-01-23T20:20:27.297Z,59.27
2019-01-23T20:22:55.914Z,59.94
2019-01-23T20:25:25.361Z,59.35
2019-01-23T20:27:54.261Z,59.28
2019-01-23T20:30:25.973Z,58.44
2019-01-23T20:32:54.640Z,58.69
2019-01-23T20:35:23.235Z,58.39
2019-01-23T20:37:51.896Z,58.63
2019-01-23T20:40:20.528Z,58.97
2019-01-23T20:42:49.821Z,58.24
2019-01-23T20:45:18.867Z,60.22
2019-01-23T20:47:47.484Z,59.56
2019-01-23T20:50:19.231Z,61.08
2019-01-23T20:52:47.901Z,60.21
2019-01-23T20:55:16.512Z,59.32
2019-01-23T20:57:45.247Z,60.48
2019-01-23T21:00:17.401Z,59.74
2019-01-23T21:02:46.359Z,58.92
2019-01-23T21:05:15.639Z,60.43
2019-01-23T21:07:44.336Z,60.05
2019-01-23T21:10:13.884Z,61.04
2019-01-23T21:12:42.818Z,61.00
2019-01-23T21:15:16.525Z,59.82
2019-01-23T21:17:45.251Z,59.29
2019-01-23T21:20:13.931Z,60.10
2019-01-23T21:22:42.582Z,59.17
2019-01-23T21:25:11.457Z,59.99
2019-01-23T21:27:40.040Z,61.57
2019-01-23T21:30:12.581Z,61.34
2019-01-23T21:32:41.189Z,61.97
2019-01-23T21:35:10.025Z,60.94
2019-01-23T21:37:38.979Z,60.67
2019-01-23T21:40:12.016Z,60.95
2019-01-23T21:42:40.627Z,61.10
2019-01-23T21:45:10.618Z,58.70
2019-01-23T21:47:39.220Z,58.90
2019-01-23T21:50:10.511Z,60.69
2019-01-23T21:52:40.102Z,60.62
2019-01-23T21:55:10.047Z,59.97
2019-01-23T21:57:38.725Z,59.97
2019-01-23T22:00:35.007Z,60.77
2019-01-23T22:03:03.893Z,60.47
2019-01-23T22:05:32.487Z,58.65
2019-01-23T22:08:01.095Z,60.33
2019-01-23T22:10:29.682Z,60.27
2019-01-23T22:12:58.436Z,60.52
2019-01-23T22:15:27.231Z,60.95
2019-01-23T22:17:55.852Z,61.20
2019-01-23T22:20:24.913Z,59.36
2019-01-23T22:22:53.509Z,61.75
2019-01-23T22:25:23.297Z,62.66
2019-01-23T22:27:51.895Z,60.64
2019-01-23T22:30:28.393Z,61.23
2019-01-23T22:32:56.986Z,61.14
2019-01-23T22:35:25.664Z,61.24
2019-01-23T22:37:54.596Z,61.81
2019-01-23T22:40:23.550Z,60.64
2019-01-23T22:42:52.609Z,61.15
2019-01-23T22:45:21.381Z,61.99
2019-01-23T22:47:50.311Z,60.20
2019-01-23T22:50:20.956Z,60.58
2019-01-23T22:52:49.697Z,62.07
2019-01-23T22:55:18.355Z,62.10
2019-01-23T22:57:46.999Z,61.42
2019-01-23T23:00:38.992Z,62.98
2019-01-23T23:03:16.507Z,60.03
2019-01-23T23:05:55.408Z,60.35
2019-01-23T23:08:27.599Z,62.62
2019-01-23T23:11:04.835Z,61.09
2019-01-23T23:13:33.404Z,60.67
2019-01-23T23:16:02.056Z,61.71
2019-01-23T23:18:30.634Z,61.40
2019-01-23T23:20:59.332Z,61.74
2019-01-23T23:23:28.161Z,62.76
2019-01-23T23:25:56.775Z,65.27
2019-01-23T23:28:26.020Z,64.50
2019-01-23T23:30:54.668Z,64.50
2019-01-23T23:33:23.264Z,65.65
2019-01-23T23:35:51.854Z,65.65
2019-01-23T23:38:20.441Z,66.40
2019-01-23T23:40:50.306Z,63.44
2019-01-23T23:43:18.891Z,64.17
2019-01-23T23:45:47.751Z,64.37
2019-01-23T23:48:16.344Z,65.88
2019-01-23T23:50:45.023Z,63.74
2019-01-23T23:53:13.637Z,63.36
2019-01-23T23:55:42.227Z,65.23
2019-01-23T23:58:10.812Z,62.11
